TimeCST,TemperatureF,Dew PointF,Humidity,Sea Level PressureIn,VisibilityMPH,Wind Direction,Wind SpeedMPH,Gust SpeedMPH,PrecipitationIn,Events,Conditions,WindDirDegrees,DateUTC
12:15 AM,37.4,30.2,75,29.76,10.0,NNW,11.5,-,N/A,,Scattered Clouds,340,2013-01-30 06:15:00
12:35 AM,37.4,30.2,75,29.78,10.0,NW,11.5,-,N/A,,Mostly Cloudy,320,2013-01-30 06:35:00
12:55 AM,41.0,30.2,65,29.79,10.0,NNW,21.9,27.6,N/A,,Mostly Cloudy,330,2013-01-30 06:55:00
1:15 AM,39.2,32.0,75,29.79,10.0,NNW,20.7,29.9,N/A,,Mostly Cloudy,330,2013-01-30 07:15:00
1:55 AM,37.4,30.2,75,29.82,10.0,NNW,17.3,21.9,N/A,,Mostly Cloudy,330,2013-01-30 07:55:00
2:15 AM,39.2,30.2,70,29.83,10.0,NNW,15.0,-,N/A,,Mostly Cloudy,330,2013-01-30 08:15:00
2:35 AM,39.2,30.2,70,29.83,10.0,NNW,16.1,-,N/A,,Overcast,330,2013-01-30 08:35:00
2:55 AM,41.0,30.2,65,29.83,10.0,NNW,17.3,26.5,N/A,,Overcast,340,2013-01-30 08:55:00
3:15 AM,39.2,28.4,65,29.84,10.0,NNW,16.1,26.5,N/A,,Mostly Cloudy,330,2013-01-30 09:15:00
3:55 AM,37.4,28.4,70,29.86,10.0,NNW,16.1,20.7,N/A,,Scattered Clouds,330,2013-01-30 09:55:00
4:15 AM,37.4,28.4,70,29.87,10.0,NNW,17.3,21.9,N/A,,Mostly Cloudy,340,2013-01-30 10:15:00
4:35 AM,37.4,28.4,70,29.88,10.0,NNW,15.0,24.2,N/A,,Mostly Cloudy,340,2013-01-30 10:35:00
4:55 AM,37.4,28.4,70,29.90,10.0,NNW,16.1,24.2,N/A,,Mostly Cloudy,330,2013-01-30 10:55:00
5:15 AM,35.6,26.6,70,29.91,10.0,NW,16.1,20.7,N/A,,Scattered Clouds,320,2013-01-30 11:15:00
5:35 AM,35.6,26.6,70,29.92,10.0,NNW,17.3,-,N/A,,Scattered Clouds,340,2013-01-30 11:35:00
5:55 AM,37.4,28.4,70,29.93,10.0,NNW,17.3,-,N/A,,Overcast,330,2013-01-30 11:55:00
6:15 AM,37.4,26.6,65,29.94,10.0,NNW,19.6,-,N/A,,Overcast,330,2013-01-30 12:15:00
6:35 AM,37.4,26.6,65,29.96,10.0,NW,18.4,21.9,N/A,,Overcast,320,2013-01-30 12:35:00
6:55 AM,35.6,26.6,70,29.97,10.0,NW,24.2,29.9,N/A,,Mostly Cloudy,310,2013-01-30 12:55:00
7:15 AM,33.8,24.8,70,29.99,10.0,NW,23.0,26.5,N/A,,Scattered Clouds,320,2013-01-30 13:15:00
7:35 AM,33.8,23.0,65,30.02,10.0,NW,15.0,-,N/A,,Clear,310,2013-01-30 13:35:00
7:55 AM,32.0,23.0,69,30.03,10.0,NW,16.1,20.7,N/A,,Clear,310,2013-01-30 13:55:00
8:15 AM,32.0,23.0,69,30.04,10.0,NW,17.3,24.2,N/A,,Clear,320,2013-01-30 14:15:00
8:35 AM,33.8,23.0,65,30.05,10.0,NW,17.3,21.9,N/A,,Clear,320,2013-01-30 14:35:00
8:55 AM,33.8,23.0,65,30.06,10.0,NW,20.7,-,N/A,,Clear,320,2013-01-30 14:55:00
9:15 AM,35.6,23.0,60,30.07,10.0,NNW,21.9,26.5,N/A,,Clear,330,2013-01-30 15:15:00
9:35 AM,35.6,23.0,60,30.08,10.0,NW,19.6,27.6,N/A,,Clear,320,2013-01-30 15:35:00
9:55 AM,37.4,23.0,56,30.09,10.0,NW,18.4,-,N/A,,Clear,320,2013-01-30 15:55:00
10:15 AM,37.4,23.0,56,30.09,10.0,NW,18.4,24.2,N/A,,Clear,320,2013-01-30 16:15:00
10:35 AM,37.4,23.0,56,30.10,10.0,NW,20.7,26.5,N/A,,Clear,320,2013-01-30 16:35:00
10:55 AM,39.2,23.0,52,30.10,10.0,NW,16.1,23.0,N/A,,Clear,320,2013-01-30 16:55:00
11:15 AM,41.0,23.0,49,30.11,10.0,NW,18.4,25.3,N/A,,Clear,320,2013-01-30 17:15:00
11:35 AM,41.0,23.0,49,30.11,10.0,NW,17.3,21.9,N/A,,Clear,310,2013-01-30 17:35:00
11:55 AM,42.8,23.0,46,30.11,10.0,NW,17.3,25.3,N/A,,Clear,320,2013-01-30 17:55:00
12:15 PM,42.8,21.2,42,30.10,10.0,NW,17.3,23.0,N/A,,Clear,320,2013-01-30 18:15:00
12:35 PM,44.6,21.2,39,30.09,10.0,NW,18.4,23.0,N/A,,Clear,320,2013-01-30 18:35:00
12:55 PM,44.6,21.2,39,30.09,10.0,WNW,18.4,27.6,N/A,,Clear,300,2013-01-30 18:55:00
1:15 PM,46.4,19.4,34,30.08,10.0,NW,17.3,25.3,N/A,,Clear,310,2013-01-30 19:15:00
1:35 PM,46.4,19.4,34,30.07,10.0,WNW,18.4,25.3,N/A,,Clear,290,2013-01-30 19:35:00
1:55 PM,46.4,17.6,32,30.06,10.0,NW,12.7,27.6,N/A,,Clear,320,2013-01-30 19:55:00
2:15 PM,46.4,15.8,29,30.06,10.0,NW,13.8,21.9,N/A,,Clear,310,2013-01-30 20:15:00
2:55 PM,50.0,14.0,24,30.05,10.0,WNW,17.3,24.2,N/A,,Clear,300,2013-01-30 20:55:00
3:15 PM,50.0,12.2,22,30.05,10.0,NW,12.7,25.3,N/A,,Clear,320,2013-01-30 21:15:00
3:35 PM,50.0,12.2,22,30.05,10.0,WNW,20.7,-,N/A,,Clear,300,2013-01-30 21:35:00
4:15 PM,50.0,10.4,20,30.05,10.0,WNW,16.1,25.3,N/A,,Clear,290,2013-01-30 22:15:00
4:35 PM,50.0,10.4,20,30.04,10.0,WNW,18.4,-,N/A,,Clear,290,2013-01-30 22:35:00
4:55 PM,50.0,10.4,20,30.04,10.0,West,18.4,25.3,N/A,,Clear,280,2013-01-30 22:55:00
5:15 PM,48.2,10.4,22,30.05,10.0,West,15.0,25.3,N/A,,Clear,270,2013-01-30 23:15:00
5:35 PM,48.2,12.2,24,30.05,10.0,West,10.4,-,N/A,,Clear,270,2013-01-30 23:35:00
5:55 PM,46.4,12.2,25,30.05,10.0,West,9.2,-,N/A,,Clear,260,2013-01-30 23:55:00
6:15 PM,42.8,14.0,31,30.06,10.0,WSW,5.8,-,N/A,,Clear,250,2013-01-31 00:15:00
6:35 PM,41.0,14.0,33,30.06,10.0,West,3.5,-,N/A,,Clear,260,2013-01-31 00:35:00
6:55 PM,41.0,14.0,33,30.07,7.0,West,4.6,-,N/A,,Clear,260,2013-01-31 00:55:00
7:15 PM,41.0,14.0,33,30.06,10.0,Calm,Calm,-,N/A,,Clear,0,2013-01-31 01:15:00
7:35 PM,39.2,14.0,36,30.07,10.0,Calm,Calm,-,N/A,,Clear,0,2013-01-31 01:35:00
7:55 PM,41.0,14.0,33,30.07,10.0,Calm,Calm,-,N/A,,Clear,0,2013-01-31 01:55:00
8:15 PM,39.2,14.0,36,30.08,10.0,Calm,Calm,-,N/A,,Clear,0,2013-01-31 02:15:00
8:35 PM,37.4,14.0,38,30.09,10.0,WSW,4.6,-,N/A,,Clear,250,2013-01-31 02:35:00
8:55 PM,37.4,12.2,36,30.10,7.0,West,6.9,-,N/A,,Clear,270,2013-01-31 02:55:00
9:15 PM,37.4,12.2,36,30.10,10.0,WSW,5.8,-,N/A,,Clear,250,2013-01-31 03:15:00
9:35 PM,32.0,14.0,48,30.10,10.0,SSW,5.8,-,N/A,,Clear,210,2013-01-31 03:35:00
9:55 PM,32.0,14.0,48,30.10,10.0,SSW,4.6,-,N/A,,Clear,200,2013-01-31 03:55:00
10:15 PM,33.8,14.0,44,30.10,10.0,South,5.8,-,N/A,,Clear,190,2013-01-31 04:15:00
10:35 PM,35.6,12.2,38,30.09,10.0,South,4.6,-,N/A,,Clear,190,2013-01-31 04:35:00
11:15 PM,37.4,12.2,36,30.09,10.0,Calm,Calm,-,N/A,,Clear,0,2013-01-31 05:15:00
11:35 PM,35.6,12.2,38,30.09,10.0,SW,4.6,-,N/A,,Clear,220,2013-01-31 05:35:00
11:55 PM,32.0,14.0,48,30.09,10.0,SSW,5.8,-,N/A,,Clear,210,2013-01-31 05:55:00